This is the latest recevied weather packets stored in our database for station/object EA1GLE. If no packets are shown the sender has not sent any weather packets the latest 10 day(s).
| Time | Temp. | Humidity | Pressure | Rain* | Wind** | Luminosity | Snow |
|---|---|---|---|---|---|---|---|
| 1778219643 | 7.78° C | 92% | 1012.8 hPa | 0 mm | - | 43 W/m² | - |
| 1778219236 | 7.78° C | 91% | 1012.9 hPa | 0 mm | - | 33 W/m² | - |
| 1778216403 | 7.78° C | 91% | 1012.5 hPa | 0 mm | - | 0 W/m² | - |
| 1778212937 | 7.78° C | 89% | 1012.2 hPa | 0 mm | - | 0 W/m² | - |
| 1778210958 | 8.33° C | 89% | 1012.2 hPa | 0 mm | - | 0 W/m² | - |
| 1778210418 | 8.33° C | 89% | 1012.3 hPa | 0 mm | - | 0 W/m² | - |
| 1778206683 | 8.33° C | 88% | 1012.7 hPa | 0 mm | - | 0 W/m² | - |
| 1778205243 | 8.89° C | 87% | 1012.9 hPa | 0 mm | - | 0 W/m² | - |
| 1778191204 | 8.89° C | 90% | 1014.1 hPa | 0 mm | - | 0 W/m² | - |
| 1778188143 | 8.33° C | 91% | 1014.2 hPa | 0 mm | - | 0 W/m² | - |
| 1778187603 | 8.33° C | 90% | 1014.1 hPa | 0 mm | - | 0 W/m² | - |
| 1778187243 | 8.89° C | 90% | 1014.1 hPa | 0 mm | - | 0 W/m² | - |
| 1778184004 | 10° C | 87% | 1013 hPa | 0 mm | - | 0 W/m² | - |
| 1778181483 | 11.11° C | 84% | 1012.7 hPa | 0 mm | - | 1 W/m² | - |
| 1778179503 | 12.78° C | 80% | 1012.5 hPa | 0 mm | - | 22 W/m² | - |
| 1778176939 | 13.33° C | 78% | 1012.3 hPa | 0 mm | - | 36 W/m² | - |
| 1778169243 | 12.22° C | 81% | 1013.2 hPa | 0.25 mm | - | 225 W/m² | - |
| 1778167623 | 11.67° C | 85% | 1013.2 hPa | 0.51 mm | - | 317 W/m² | - |
| 1778167083 | 11.11° C | 86% | 1013.2 hPa | 0.76 mm | - | 380 W/m² | - |
| 1778166003 | 11.11° C | 86% | 1013.2 hPa | 0.51 mm | - | 104 W/m² | - |
| 1778164698 | 12.22° C | 89% | 1013 hPa | 0.51 mm | - | 28 W/m² | - |
| 1778162043 | 16.11° C | 63% | 1011.8 hPa | 0 mm | - | 267 W/m² | - |
| 1778156283 | 17.78° C | 46% | 1012.1 hPa | 0 mm | - | 790 W/m² | - |
| 1778155203 | 17.22° C | 49% | 1012.5 hPa | 0 mm | - | 869 W/m² | - |
| 1778148004 | 15.56° C | 60% | 1013.4 hPa | 0 mm | - | 767 W/m² | - |
* Rain latest hour (hover to see other rain measurements)
** Current wind speed in m/s (hover to see current wind gust speed)